createdAt,value
2023-10-04T00:00:29.437Z,52.40
2023-10-04T00:02:31.958Z,52.73
2023-10-04T00:04:36.007Z,52.11
2023-10-04T00:06:38.720Z,51.83
2023-10-04T00:08:41.256Z,52.26
2023-10-04T00:10:43.549Z,52.78
2023-10-04T00:12:47.677Z,52.70
2023-10-04T00:14:50.575Z,52.64
2023-10-04T00:16:54.654Z,52.38
2023-10-04T00:18:57.978Z,52.01
2023-10-04T00:21:00.461Z,52.09
2023-10-04T00:23:06.148Z,52.10
2023-10-04T00:25:18.417Z,51.93
2023-10-04T00:27:21.488Z,52.30
2023-10-04T00:29:23.847Z,52.26
2023-10-04T00:31:26.318Z,52.20
2023-10-04T00:33:30.527Z,52.34
2023-10-04T00:35:33.270Z,53.43
2023-10-04T00:37:35.939Z,52.50
2023-10-04T00:39:38.958Z,52.71
2023-10-04T00:41:42.187Z,52.72
2023-10-04T00:43:51.230Z,53.40
2023-10-04T00:45:55.036Z,52.48
2023-10-04T00:48:00.394Z,52.55
2023-10-04T00:50:16.095Z,52.54
2023-10-04T00:52:20.534Z,52.67
2023-10-04T00:54:23.420Z,52.63
2023-10-04T00:56:26.529Z,52.90
2023-10-04T00:58:29.629Z,52.81
2023-10-04T01:00:32.139Z,54.03
2023-10-04T01:02:35.420Z,53.41
2023-10-04T01:04:38.067Z,52.72
2023-10-04T01:06:41.655Z,53.82
2023-10-04T01:08:44.146Z,53.33
2023-10-04T01:10:48.375Z,54.87
2023-10-04T01:12:50.999Z,54.24
2023-10-04T01:14:55.346Z,53.97
2023-10-04T01:16:58.316Z,53.39
2023-10-04T01:19:00.674Z,52.82
2023-10-04T01:21:03.255Z,52.94
2023-10-04T01:23:07.603Z,53.32
2023-10-04T01:25:12.878Z,53.24
2023-10-04T01:27:15.363Z,52.88
2023-10-04T01:29:19.910Z,52.80
2023-10-04T01:31:22.454Z,53.17
2023-10-04T01:33:25.191Z,52.95
2023-10-04T01:35:29.021Z,52.71
2023-10-04T01:37:33.253Z,52.98
2023-10-04T01:39:38.179Z,52.62
2023-10-04T01:41:40.907Z,52.46
2023-10-04T01:43:43.326Z,52.71
2023-10-04T01:45:54.142Z,52.74
2023-10-04T01:47:56.928Z,52.21
2023-10-04T01:49:59.476Z,52.99
2023-10-04T01:52:03.780Z,52.42
2023-10-04T01:54:06.564Z,52.45
2023-10-04T01:56:09.305Z,52.09
2023-10-04T01:58:12.227Z,52.17
2023-10-04T02:00:19.046Z,51.94
2023-10-04T02:02:25.002Z,53.28
2023-10-04T02:04:29.664Z,53.52
2023-10-04T02:06:33.152Z,53.84
2023-10-04T02:08:35.889Z,54.32
2023-10-04T02:10:38.407Z,54.29
2023-10-04T02:12:44.798Z,53.70
2023-10-04T02:14:48.258Z,53.88
2023-10-04T02:16:51.783Z,53.45
2023-10-04T02:18:54.452Z,53.69
2023-10-04T02:20:56.951Z,54.36
2023-10-04T02:23:01.298Z,53.76
2023-10-04T02:25:11.578Z,53.60
2023-10-04T02:27:18.184Z,54.05
2023-10-04T02:29:20.617Z,55.79
2023-10-04T02:31:24.273Z,54.19
2023-10-04T02:33:34.057Z,54.29
2023-10-04T02:35:42.726Z,53.42
2023-10-04T02:37:46.347Z,53.34
2023-10-04T02:39:49.215Z,53.49
2023-10-04T02:41:51.756Z,53.73
2023-10-04T02:43:55.900Z,53.65
2023-10-04T02:45:58.769Z,53.63
2023-10-04T02:48:01.411Z,53.22
2023-10-04T02:50:05.392Z,54.00
2023-10-04T02:52:12.797Z,53.91
2023-10-04T02:54:17.657Z,54.19
2023-10-04T02:56:22.429Z,54.18
2023-10-04T02:58:26.291Z,53.66
2023-10-04T03:00:29.152Z,53.43
2023-10-04T03:02:32.562Z,53.28
2023-10-04T03:04:35.576Z,53.07
2023-10-04T03:06:39.754Z,53.29
2023-10-04T03:08:42.540Z,53.03
2023-10-04T03:10:46.657Z,52.90
2023-10-04T03:12:53.252Z,52.81
2023-10-04T03:14:57.946Z,53.02
2023-10-04T03:17:02.011Z,52.82
2023-10-04T03:19:05.534Z,52.80
2023-10-04T03:21:22.036Z,53.15
2023-10-04T03:23:25.951Z,52.86
2023-10-04T03:25:29.769Z,52.58
2023-10-04T03:27:35.722Z,53.21
2023-10-04T03:29:38.467Z,52.83
2023-10-04T03:31:41.030Z,53.31
2023-10-04T03:33:47.709Z,53.00
2023-10-04T03:35:55.112Z,53.39
2023-10-04T03:38:03.163Z,53.01
2023-10-04T03:40:16.534Z,53.59
2023-10-04T03:42:19.151Z,53.55
2023-10-04T03:44:21.810Z,53.83
2023-10-04T03:46:24.315Z,53.48
2023-10-04T03:48:30.880Z,53.92
2023-10-04T03:50:39.622Z,54.37
2023-10-04T03:52:43.965Z,54.45
2023-10-04T03:54:47.544Z,54.15
2023-10-04T03:56:51.045Z,54.38
2023-10-04T03:58:53.577Z,53.83
2023-10-04T04:00:56.370Z,53.98
2023-10-04T04:03:00.817Z,53.98
2023-10-04T04:05:06.823Z,53.61
2023-10-04T04:07:09.688Z,53.36
2023-10-04T04:09:12.308Z,53.19
2023-10-04T04:11:15.853Z,53.03
2023-10-04T04:13:20.377Z,52.94
2023-10-04T04:15:25.221Z,53.11
2023-10-04T04:17:28.531Z,53.18
2023-10-04T04:19:31.259Z,52.89
2023-10-04T04:21:35.059Z,52.77
2023-10-04T04:23:38.645Z,53.27
2023-10-04T04:25:42.199Z,53.73
2023-10-04T04:27:48.051Z,53.66
2023-10-04T04:29:56.206Z,53.15
2023-10-04T04:32:00.690Z,53.04
2023-10-04T04:34:05.311Z,53.16
2023-10-04T04:36:20.819Z,52.93
2023-10-04T04:38:23.316Z,53.27
2023-10-04T04:40:31.840Z,52.92
2023-10-04T04:42:37.049Z,52.69
2023-10-04T04:44:44.008Z,52.77
2023-10-04T04:46:49.295Z,53.28
2023-10-04T04:48:56.469Z,52.97
2023-10-04T04:51:08.758Z,52.84
2023-10-04T04:53:16.092Z,52.91
2023-10-04T04:55:18.451Z,52.98
2023-10-04T04:57:21.009Z,52.88
2023-10-04T04:59:25.855Z,53.06
2023-10-04T05:01:35.360Z,52.74
2023-10-04T05:03:43.349Z,52.74
2023-10-04T05:05:46.371Z,52.88
2023-10-04T05:07:49.714Z,52.91
2023-10-04T05:09:52.185Z,53.19
2023-10-04T05:11:55.298Z,52.76
2023-10-04T05:13:58.431Z,52.50
2023-10-04T05:16:01.595Z,52.84
2023-10-04T05:18:16.880Z,52.22
2023-10-04T05:20:21.527Z,52.63
2023-10-04T05:22:24.035Z,52.10
2023-10-04T05:24:26.504Z,52.25
2023-10-04T05:26:30.219Z,51.96
2023-10-04T05:28:33.055Z,52.60
2023-10-04T05:30:35.708Z,52.26
2023-10-04T05:32:38.257Z,52.03
2023-10-04T05:34:40.659Z,52.40
2023-10-04T05:36:43.236Z,51.77
2023-10-04T05:38:45.716Z,51.62
2023-10-04T05:40:48.528Z,51.46
2023-10-04T05:42:51.449Z,51.59
2023-10-04T05:44:54.034Z,51.40
2023-10-04T05:46:56.551Z,51.64
2023-10-04T05:48:58.951Z,51.92
2023-10-04T05:51:01.742Z,52.46
2023-10-04T05:53:11.293Z,52.41
2023-10-04T05:55:14.935Z,52.10
2023-10-04T05:57:17.666Z,52.54
2023-10-04T05:59:20.298Z,52.40
2023-10-04T06:01:24.013Z,53.21
2023-10-04T06:03:28.078Z,53.17
2023-10-04T06:05:34.572Z,53.45
2023-10-04T06:07:37.090Z,53.22
2023-10-04T06:09:43.823Z,52.97
2023-10-04T06:11:46.264Z,53.49
2023-10-04T06:13:49.468Z,53.32
2023-10-04T06:15:55.943Z,53.33
2023-10-04T06:17:59.405Z,52.84
2023-10-04T06:20:01.855Z,52.72
2023-10-04T06:22:04.322Z,53.20
2023-10-04T06:24:06.856Z,52.98
2023-10-04T06:26:09.347Z,53.19
2023-10-04T06:28:12.578Z,53.32
2023-10-04T06:30:17.680Z,52.83
2023-10-04T06:32:20.415Z,52.69
2023-10-04T06:34:23.740Z,52.86
2023-10-04T06:36:26.727Z,53.04
2023-10-04T06:38:29.264Z,53.18
2023-10-04T06:40:35.466Z,53.01
2023-10-04T06:42:38.104Z,52.98
2023-10-04T06:44:40.571Z,53.22
2023-10-04T06:46:43.133Z,53.51
2023-10-04T06:48:46.825Z,53.70
2023-10-04T06:50:51.656Z,53.78
2023-10-04T06:52:54.312Z,53.72
2023-10-04T06:54:57.141Z,53.48
2023-10-04T06:57:00.808Z,53.12
2023-10-04T06:59:03.542Z,52.49
2023-10-04T07:01:07.252Z,52.45
2023-10-04T07:03:10.374Z,52.48
2023-10-04T07:05:21.096Z,52.02
2023-10-04T07:07:23.418Z,51.88
2023-10-04T07:09:29.230Z,51.77
2023-10-04T07:11:34.979Z,51.62
2023-10-04T07:13:38.336Z,50.30
2023-10-04T07:15:41.589Z,50.24
2023-10-04T07:17:44.156Z,50.29
2023-10-04T07:19:46.848Z,50.07
2023-10-04T07:21:50.786Z,49.59
2023-10-04T07:23:53.294Z,49.13
2023-10-04T07:25:55.938Z,48.45
2023-10-04T07:28:04.241Z,48.94
2023-10-04T07:30:08.844Z,47.80
2023-10-04T07:32:11.497Z,48.24
2023-10-04T07:34:14.040Z,47.65
2023-10-04T07:36:17.318Z,47.18
2023-10-04T07:38:19.856Z,47.20
2023-10-04T07:40:24.220Z,47.36
2023-10-04T07:42:27.811Z,47.00
2023-10-04T07:44:33.312Z,47.01
2023-10-04T07:46:35.998Z,47.38
2023-10-04T07:48:38.672Z,46.57
2023-10-04T07:50:41.277Z,46.41
2023-10-04T07:52:45.807Z,45.73
2023-10-04T07:54:48.500Z,45.68
2023-10-04T07:56:51.058Z,46.02
2023-10-04T07:58:53.654Z,45.67
2023-10-04T08:00:56.310Z,45.36
2023-10-04T08:03:02.392Z,44.90
2023-10-04T08:05:09.471Z,44.80
2023-10-04T08:07:13.974Z,45.11
2023-10-04T08:09:17.213Z,44.69
2023-10-04T08:11:19.789Z,44.19
2023-10-04T08:13:22.132Z,44.50
2023-10-04T08:15:29.077Z,44.08
2023-10-04T08:17:32.046Z,44.66
2023-10-04T08:19:34.990Z,44.81
2023-10-04T08:21:41.727Z,44.37
2023-10-04T08:23:46.188Z,44.61
2023-10-04T08:25:52.353Z,44.04
2023-10-04T08:27:55.363Z,43.96
2023-10-04T08:29:57.960Z,43.89
2023-10-04T08:32:00.521Z,43.78
2023-10-04T08:34:03.492Z,43.84
2023-10-04T08:36:11.769Z,44.25
2023-10-04T08:38:14.446Z,43.50
2023-10-04T08:40:20.826Z,44.41
2023-10-04T08:42:25.625Z,44.32
2023-10-04T08:44:28.431Z,44.19
2023-10-04T08:46:33.613Z,43.60
2023-10-04T08:48:36.571Z,43.81
2023-10-04T08:50:43.125Z,43.62
2023-10-04T08:52:47.830Z,43.80
2023-10-04T08:54:59.584Z,43.43
2023-10-04T08:57:15.507Z,43.85
2023-10-04T08:59:19.268Z,44.01
2023-10-04T09:01:23.972Z,44.29
2023-10-04T09:03:28.051Z,43.83
2023-10-04T09:05:33.013Z,44.14
2023-10-04T09:07:35.507Z,43.90
2023-10-04T09:09:44.054Z,43.46
2023-10-04T09:11:47.350Z,43.91
2023-10-04T09:13:52.184Z,43.72
2023-10-04T09:15:54.813Z,43.11
2023-10-04T09:17:58.971Z,42.96
2023-10-04T09:20:13.036Z,42.97
2023-10-04T09:22:19.261Z,42.79
2023-10-04T09:24:22.542Z,42.59
2023-10-04T09:26:26.348Z,42.08
2023-10-04T09:28:42.571Z,42.65
2023-10-04T09:30:45.873Z,42.66
2023-10-04T09:32:48.491Z,42.73
2023-10-04T09:34:59.394Z,42.21
2023-10-04T09:37:02.196Z,43.18
2023-10-04T09:39:09.543Z,42.59
2023-10-04T09:41:12.300Z,42.70
2023-10-04T09:43:16.304Z,42.77
2023-10-04T09:45:22.783Z,42.31
2023-10-04T09:47:39.420Z,42.71
2023-10-04T09:49:50.222Z,42.29
2023-10-04T09:51:55.202Z,42.60
2023-10-04T09:53:57.548Z,42.86
2023-10-04T09:56:05.521Z,42.51
2023-10-04T09:58:12.805Z,42.90
2023-10-04T10:00:19.319Z,42.50
2023-10-04T10:02:23.213Z,42.20
2023-10-04T10:04:28.277Z,42.25
2023-10-04T10:06:35.267Z,42.52
2023-10-04T10:08:43.978Z,42.36
2023-10-04T10:10:47.612Z,42.25
2023-10-04T10:12:53.344Z,42.50
2023-10-04T10:14:56.662Z,42.43
2023-10-04T10:16:59.661Z,42.54
2023-10-04T10:19:04.530Z,42.19
2023-10-04T10:21:09.862Z,41.77
2023-10-04T10:23:15.193Z,42.14
2023-10-04T10:25:17.966Z,42.21
2023-10-04T10:27:21.424Z,41.94
2023-10-04T10:29:30.882Z,41.84
2023-10-04T10:31:36.516Z,42.25
2023-10-04T10:33:39.546Z,41.89
2023-10-04T10:35:50.814Z,41.21
2023-10-04T10:37:53.384Z,41.55
2023-10-04T10:39:58.457Z,41.92
2023-10-04T10:42:01.044Z,41.74
2023-10-04T10:44:22.384Z,41.34
2023-10-04T10:46:30.794Z,40.67
2023-10-04T10:48:36.257Z,41.23
2023-10-04T10:50:42.506Z,41.47
2023-10-04T10:52:45.126Z,41.39
2023-10-04T10:54:48.427Z,41.53
2023-10-04T10:56:51.252Z,41.49
2023-10-04T10:58:53.761Z,41.28
2023-10-04T11:00:58.169Z,41.69
2023-10-04T11:03:02.203Z,41.61
2023-10-04T11:05:08.123Z,41.41
2023-10-04T11:07:13.290Z,41.51
2023-10-04T11:09:28.119Z,41.75
2023-10-04T11:11:38.961Z,41.51
2023-10-04T11:13:45.327Z,41.28
2023-10-04T11:15:48.337Z,41.08
2023-10-04T11:17:52.547Z,41.20
2023-10-04T11:19:55.537Z,41.04
2023-10-04T11:21:58.880Z,40.59
2023-10-04T11:24:05.583Z,40.55
2023-10-04T11:26:10.525Z,40.27
2023-10-04T11:28:13.308Z,40.75
2023-10-04T11:30:35.569Z,40.41
2023-10-04T11:32:48.067Z,40.12
2023-10-04T11:34:50.786Z,40.41
2023-10-04T11:37:00.717Z,40.18
2023-10-04T11:39:10.774Z,40.57
2023-10-04T11:41:14.910Z,40.31
2023-10-04T11:43:18.038Z,40.95
2023-10-04T11:45:25.532Z,40.53
2023-10-04T11:47:30.193Z,40.63
2023-10-04T11:49:34.611Z,40.45
2023-10-04T11:51:40.973Z,40.30
2023-10-04T11:53:47.450Z,40.55
2023-10-04T11:55:58.859Z,40.42
2023-10-04T11:58:06.286Z,40.39
2023-10-04T12:00:24.509Z,40.22
2023-10-04T12:02:27.379Z,40.73
2023-10-04T12:04:31.208Z,40.34
2023-10-04T12:06:36.336Z,40.74
2023-10-04T12:08:41.374Z,40.82
2023-10-04T12:10:47.498Z,40.31
2023-10-04T12:12:50.150Z,40.94
2023-10-04T12:14:52.754Z,40.47
2023-10-04T12:16:55.306Z,40.30
2023-10-04T12:18:58.046Z,39.87
2023-10-04T12:21:00.519Z,40.00
2023-10-04T12:23:03.070Z,40.07
2023-10-04T12:25:06.403Z,40.25
2023-10-04T12:27:16.128Z,40.33
2023-10-04T12:29:18.880Z,40.18
2023-10-04T12:31:21.563Z,40.52
2023-10-04T12:33:25.453Z,40.47
2023-10-04T12:35:28.694Z,39.87
2023-10-04T12:37:31.352Z,39.75
2023-10-04T12:39:34.151Z,39.84
2023-10-04T12:41:38.533Z,39.73
2023-10-04T12:43:41.039Z,40.08
2023-10-04T12:45:45.416Z,40.18
2023-10-04T12:47:48.700Z,39.68
2023-10-04T12:49:51.255Z,40.20
2023-10-04T12:51:54.228Z,39.97
2023-10-04T12:53:57.066Z,39.96
2023-10-04T12:55:59.603Z,39.89
2023-10-04T12:58:02.115Z,39.79
2023-10-04T13:00:15.284Z,39.84
2023-10-04T13:02:17.634Z,40.03
2023-10-04T13:04:20.285Z,40.01
2023-10-04T13:06:23.070Z,39.81
2023-10-04T13:08:27.044Z,39.94
2023-10-04T13:10:29.637Z,39.76
2023-10-04T13:12:32.400Z,39.97
2023-10-04T13:14:34.799Z,39.74
2023-10-04T13:16:37.422Z,39.68
2023-10-04T13:18:39.971Z,39.56
2023-10-04T13:20:42.560Z,39.62
2023-10-04T13:22:46.522Z,39.84
2023-10-04T13:24:49.094Z,39.68
2023-10-04T13:26:51.966Z,39.80
2023-10-04T13:28:54.538Z,39.98
2023-10-04T13:30:57.314Z,39.64
2023-10-04T13:33:00.054Z,39.70
2023-10-04T13:35:03.421Z,39.82
2023-10-04T13:37:06.396Z,39.84
2023-10-04T13:39:09.169Z,39.95
2023-10-04T13:41:15.407Z,39.67
2023-10-04T13:43:18.116Z,39.59
2023-10-04T13:45:20.883Z,39.70
2023-10-04T13:47:23.509Z,40.03
2023-10-04T13:49:27.913Z,39.56
2023-10-04T13:51:30.435Z,39.63
2023-10-04T13:53:32.954Z,39.52
2023-10-04T13:55:37.936Z,39.50
2023-10-04T13:57:41.037Z,39.38
2023-10-04T13:59:46.854Z,39.38
2023-10-04T14:01:50.573Z,39.40
2023-10-04T14:03:53.442Z,39.57
2023-10-04T14:06:02.174Z,39.47
2023-10-04T14:08:11.019Z,39.46
2023-10-04T14:10:14.012Z,39.78
2023-10-04T14:12:17.936Z,39.56
2023-10-04T14:14:23.112Z,39.85
2023-10-04T14:16:25.847Z,39.83
2023-10-04T14:18:30.131Z,40.03
2023-10-04T14:20:33.497Z,40.00
2023-10-04T14:22:36.060Z,39.88
2023-10-04T14:24:38.538Z,39.75
2023-10-04T14:26:41.282Z,39.56
2023-10-04T14:28:43.787Z,39.67
2023-10-04T14:30:48.666Z,40.08
2023-10-04T14:32:53.242Z,39.90
2023-10-04T14:34:57.449Z,39.76
2023-10-04T14:37:02.477Z,40.21
2023-10-04T14:39:09.566Z,39.84
2023-10-04T14:41:12.234Z,39.78
2023-10-04T14:43:14.798Z,39.79
2023-10-04T14:45:18.713Z,39.83
2023-10-04T14:47:21.172Z,40.04
2023-10-04T14:49:23.797Z,40.10
2023-10-04T14:51:26.728Z,40.50
2023-10-04T14:53:29.546Z,40.19
2023-10-04T14:55:33.155Z,40.17
2023-10-04T14:57:43.375Z,40.16
2023-10-04T14:59:45.806Z,40.44
2023-10-04T15:01:48.300Z,40.34
2023-10-04T15:03:52.553Z,40.53
2023-10-04T15:05:55.532Z,40.49
2023-10-04T15:07:59.757Z,40.77
2023-10-04T15:10:04.343Z,40.51
2023-10-04T15:12:06.896Z,40.55
2023-10-04T15:14:10.976Z,40.62
2023-10-04T15:16:13.664Z,40.88
2023-10-04T15:18:16.348Z,40.82
2023-10-04T15:20:21.489Z,40.21
2023-10-04T15:22:41.803Z,40.65
2023-10-04T15:24:44.375Z,40.79
2023-10-04T15:26:48.577Z,40.86
2023-10-04T15:28:51.640Z,40.41
2023-10-04T15:30:56.227Z,41.34
2023-10-04T15:32:58.908Z,41.07
2023-10-04T15:35:02.732Z,40.99
2023-10-04T15:37:05.669Z,40.98
2023-10-04T15:39:27.892Z,40.83
2023-10-04T15:41:30.579Z,41.34
2023-10-04T15:43:33.159Z,41.14
2023-10-04T15:45:36.279Z,41.19
2023-10-04T15:47:41.222Z,41.03
2023-10-04T15:49:44.725Z,40.91
2023-10-04T15:51:47.778Z,40.91
2023-10-04T15:53:50.928Z,41.31
2023-10-04T15:55:53.603Z,41.09
2023-10-04T15:57:56.327Z,41.22
2023-10-04T16:00:01.345Z,40.78
2023-10-04T16:02:12.615Z,40.90
2023-10-04T16:04:15.656Z,40.72
2023-10-04T16:06:18.472Z,40.50
2023-10-04T16:08:22.497Z,40.90
2023-10-04T16:10:27.665Z,41.04
2023-10-04T16:12:31.023Z,41.69
2023-10-04T16:14:33.545Z,42.02
2023-10-04T16:16:38.340Z,41.99
2023-10-04T16:18:42.028Z,41.62
2023-10-04T16:20:48.481Z,42.07
2023-10-04T16:23:09.948Z,41.46
2023-10-04T16:25:15.368Z,41.82
2023-10-04T16:27:17.846Z,42.32
2023-10-04T16:29:20.398Z,41.78
2023-10-04T16:31:24.104Z,41.65
2023-10-04T16:33:26.852Z,41.87
2023-10-04T16:35:29.727Z,41.77
2023-10-04T16:37:32.509Z,41.56
2023-10-04T16:39:35.263Z,41.59
2023-10-04T16:41:40.432Z,41.64
2023-10-04T16:43:43.463Z,41.19
2023-10-04T16:45:46.165Z,42.00
2023-10-04T16:47:50.106Z,42.01
2023-10-04T16:49:52.998Z,41.70
2023-10-04T16:51:55.422Z,41.73
2023-10-04T16:53:58.270Z,41.69
2023-10-04T16:56:00.731Z,41.63
2023-10-04T16:58:03.371Z,41.05
2023-10-04T17:00:11.795Z,42.02
2023-10-04T17:02:14.493Z,41.57
2023-10-04T17:04:16.954Z,41.64
2023-10-04T17:06:19.894Z,41.82
2023-10-04T17:08:22.515Z,42.26
2023-10-04T17:10:25.237Z,41.71
2023-10-04T17:12:27.822Z,41.61
2023-10-04T17:14:33.341Z,42.50
2023-10-04T17:16:36.289Z,41.71
2023-10-04T17:18:38.979Z,42.15
2023-10-04T17:20:41.442Z,42.62
2023-10-04T17:22:48.313Z,42.37
2023-10-04T17:24:54.057Z,42.66
2023-10-04T17:26:57.113Z,43.05
2023-10-04T17:29:01.980Z,43.42
2023-10-04T17:31:04.889Z,43.12
2023-10-04T17:33:07.583Z,43.14
2023-10-04T17:35:10.532Z,43.44
2023-10-04T17:37:13.086Z,43.12
2023-10-04T17:39:16.056Z,43.10
2023-10-04T17:41:18.377Z,43.66
2023-10-04T17:43:21.017Z,43.24
2023-10-04T17:45:23.430Z,43.62
2023-10-04T17:47:26.188Z,43.15
2023-10-04T17:49:29.173Z,43.69
2023-10-04T17:51:32.230Z,44.20
2023-10-04T17:53:35.247Z,44.13
2023-10-04T17:55:38.855Z,44.20
2023-10-04T17:57:42.199Z,43.95
2023-10-04T17:59:45.177Z,44.26
2023-10-04T18:01:47.712Z,44.26
2023-10-04T18:03:52.618Z,44.32
2023-10-04T18:06:00.393Z,44.59
2023-10-04T18:08:04.562Z,44.69
2023-10-04T18:10:09.830Z,44.52
2023-10-04T18:12:12.604Z,45.13
2023-10-04T18:14:15.256Z,45.04
2023-10-04T18:16:18.278Z,44.79
2023-10-04T18:18:20.707Z,44.82
2023-10-04T18:20:23.975Z,45.25
2023-10-04T18:22:26.448Z,45.15
2023-10-04T18:24:29.388Z,45.75
2023-10-04T18:26:32.413Z,45.62
2023-10-04T18:28:36.796Z,45.63
2023-10-04T18:30:39.742Z,45.92
2023-10-04T18:32:42.309Z,46.47
2023-10-04T18:34:47.448Z,46.31
2023-10-04T18:36:50.082Z,46.57
2023-10-04T18:38:54.845Z,46.77
2023-10-04T18:41:01.804Z,47.42
2023-10-04T18:43:04.504Z,46.68
2023-10-04T18:45:10.293Z,46.91
2023-10-04T18:47:12.966Z,46.52
2023-10-04T18:49:16.416Z,46.79
2023-10-04T18:51:19.009Z,46.78
2023-10-04T18:53:24.275Z,46.62
2023-10-04T18:55:26.795Z,46.49
2023-10-04T18:57:33.000Z,46.23
2023-10-04T18:59:39.708Z,46.37
2023-10-04T19:01:44.510Z,46.53
2023-10-04T19:03:47.211Z,46.31
2023-10-04T19:05:49.933Z,46.41
2023-10-04T19:07:57.355Z,46.09
2023-10-04T19:10:03.006Z,46.17
2023-10-04T19:12:05.935Z,46.34
2023-10-04T19:14:09.535Z,46.21
2023-10-04T19:16:12.336Z,46.20
2023-10-04T19:18:15.024Z,46.33
2023-10-04T19:20:18.141Z,46.43
2023-10-04T19:22:23.852Z,46.37
2023-10-04T19:24:26.644Z,46.29
2023-10-04T19:26:29.377Z,46.24
2023-10-04T19:28:33.822Z,46.47
2023-10-04T19:30:38.403Z,46.20
2023-10-04T19:32:43.677Z,46.54
2023-10-04T19:34:46.653Z,46.62
2023-10-04T19:36:50.577Z,46.42
2023-10-04T19:38:53.241Z,46.46
2023-10-04T19:40:57.776Z,46.77
2023-10-04T19:43:00.275Z,46.55
2023-10-04T19:45:03.040Z,46.41
2023-10-04T19:47:06.497Z,46.58
2023-10-04T19:49:10.439Z,46.74
2023-10-04T19:51:13.535Z,47.45
2023-10-04T19:53:16.078Z,48.80
2023-10-04T19:55:20.060Z,49.16
2023-10-04T19:57:23.393Z,48.96
2023-10-04T19:59:26.503Z,48.48
2023-10-04T20:01:29.212Z,48.30
2023-10-04T20:03:33.278Z,48.50
2023-10-04T20:05:38.323Z,48.39
2023-10-04T20:07:43.839Z,48.56
2023-10-04T20:09:47.557Z,49.19
2023-10-04T20:11:51.436Z,49.22
2023-10-04T20:13:54.642Z,48.86
2023-10-04T20:15:59.382Z,49.01
2023-10-04T20:18:02.144Z,48.63
2023-10-04T20:20:05.007Z,48.67
2023-10-04T20:22:07.486Z,48.81
2023-10-04T20:24:10.571Z,48.59
2023-10-04T20:26:13.452Z,48.67
2023-10-04T20:28:16.104Z,48.44
2023-10-04T20:30:19.616Z,48.30
2023-10-04T20:32:22.531Z,48.40
2023-10-04T20:34:25.117Z,48.43
2023-10-04T20:36:27.730Z,48.90
2023-10-04T20:38:32.942Z,48.73
2023-10-04T20:40:35.388Z,48.58
2023-10-04T20:42:39.123Z,48.31
2023-10-04T20:44:43.019Z,48.48
2023-10-04T20:46:45.642Z,47.94
2023-10-04T20:48:48.380Z,48.17
2023-10-04T20:50:52.390Z,48.08
2023-10-04T20:52:54.828Z,47.93
2023-10-04T20:54:57.465Z,48.19
2023-10-04T20:57:00.834Z,48.17
2023-10-04T20:59:05.468Z,48.78
2023-10-04T21:01:08.239Z,48.58
2023-10-04T21:03:10.930Z,48.53
2023-10-04T21:05:14.038Z,48.33
2023-10-04T21:07:16.653Z,47.77
2023-10-04T21:09:22.554Z,47.66
2023-10-04T21:11:24.971Z,48.14
2023-10-04T21:13:27.576Z,47.81
2023-10-04T21:15:30.293Z,47.83
2023-10-04T21:17:33.076Z,47.67
2023-10-04T21:19:37.390Z,47.93
2023-10-04T21:21:39.834Z,47.68
2023-10-04T21:23:42.511Z,47.67
2023-10-04T21:25:45.294Z,47.82
2023-10-04T21:27:47.860Z,47.87
2023-10-04T21:29:51.574Z,47.18
2023-10-04T21:31:55.783Z,46.96
2023-10-04T21:34:09.094Z,47.92
2023-10-04T21:36:13.946Z,47.57
2023-10-04T21:38:23.044Z,47.44
2023-10-04T21:40:29.631Z,47.51
2023-10-04T21:42:32.820Z,47.27
2023-10-04T21:44:39.624Z,47.25
2023-10-04T21:46:42.028Z,47.92
2023-10-04T21:48:46.100Z,47.48
2023-10-04T21:50:53.450Z,47.62
2023-10-04T21:52:56.252Z,47.71
2023-10-04T21:55:00.393Z,47.41
2023-10-04T21:57:03.528Z,48.04
2023-10-04T21:59:08.059Z,47.90
2023-10-04T22:01:11.414Z,48.29
2023-10-04T22:03:15.124Z,48.19
2023-10-04T22:05:19.090Z,48.02
2023-10-04T22:07:23.446Z,48.34
2023-10-04T22:09:25.932Z,48.65
2023-10-04T22:11:28.722Z,48.79
2023-10-04T22:13:32.536Z,49.09
2023-10-04T22:15:37.562Z,49.42
2023-10-04T22:17:43.150Z,49.21
2023-10-04T22:19:46.316Z,48.76
2023-10-04T22:21:48.760Z,48.72
2023-10-04T22:23:51.268Z,48.57
2023-10-04T22:25:54.561Z,48.86
2023-10-04T22:27:57.113Z,48.34
2023-10-04T22:30:00.081Z,48.57
2023-10-04T22:32:03.415Z,48.54
2023-10-04T22:34:07.639Z,48.46
2023-10-04T22:36:12.088Z,48.14
2023-10-04T22:38:17.054Z,48.82
2023-10-04T22:40:20.699Z,49.26
2023-10-04T22:42:23.272Z,49.56
2023-10-04T22:44:27.094Z,50.17
2023-10-04T22:46:41.355Z,50.50
2023-10-04T22:48:44.594Z,50.01
2023-10-04T22:50:48.050Z,49.68
2023-10-04T22:52:52.032Z,50.25
2023-10-04T22:54:54.537Z,49.99
2023-10-04T22:56:57.001Z,49.78
2023-10-04T22:58:59.366Z,49.44
2023-10-04T23:01:12.726Z,49.28
2023-10-04T23:03:17.026Z,49.18
2023-10-04T23:05:23.355Z,49.56
2023-10-04T23:07:26.084Z,49.21
2023-10-04T23:09:32.414Z,49.30
2023-10-04T23:11:37.009Z,49.37
2023-10-04T23:13:44.742Z,49.32
2023-10-04T23:15:48.245Z,49.41
2023-10-04T23:17:53.832Z,49.13
2023-10-04T23:19:59.922Z,48.64
2023-10-04T23:22:10.898Z,48.75
2023-10-04T23:24:16.053Z,48.82
2023-10-04T23:26:24.046Z,48.71
2023-10-04T23:28:26.566Z,48.31
2023-10-04T23:30:29.041Z,48.26
2023-10-04T23:32:32.280Z,48.30
2023-10-04T23:34:34.817Z,48.38
2023-10-04T23:36:41.882Z,48.12
2023-10-04T23:38:46.503Z,48.22
2023-10-04T23:40:50.615Z,48.50
2023-10-04T23:42:54.989Z,48.20
2023-10-04T23:44:57.840Z,48.08
2023-10-04T23:47:05.728Z,48.42
2023-10-04T23:49:20.720Z,48.50
2023-10-04T23:51:23.776Z,48.02
2023-10-04T23:53:33.477Z,48.51
2023-10-04T23:55:38.271Z,48.24
2023-10-04T23:57:41.452Z,48.57
2023-10-04T23:59:44.009Z,48.30
